KICL/ICL METAR and TAF weather

Enter ICAO airport designator
Station Type Date Time Source
KICL METAR 2023/12/09 11:15 UTC NOAA

KICL 091115Z AUTO 27009KT 10SM OVC036 03/M02 A2986 RMK AO2


Station Type Date Time Source
KICL Decoded METAR 2023/12/09 11:15 UTC NOAA

Clarinda, IA, United States (KICL) 40-43N 095-02W
Dec 09, 2023 - 06:15 AM EST / 2023.12.09 1115 UTC
Wind: from the W (270 degrees) at 10 MPH (9 KT):0
Visibility: 10 mile(s):0
Sky conditions: overcast
Temperature: 37 F (3 C)
Dew Point: 28 F (-2 C)
Relative Humidity: 69%
Pressure (altimeter): 29.86 in. Hg (1011 hPa)
ob: KICL 091115Z AUTO 27009KT 10SM OVC036 03/M02 A2986 RMK AO2
cycle: 11

Station Type Date Time Source
KICL TAF UTC NOAA

Error!

Example: see airport list